createdAt,value
2022-09-21T00:00:26.384Z,4.4
2022-09-21T00:02:23.058Z,4.6
2022-09-21T00:04:24.297Z,4
2022-09-21T00:06:22.751Z,4.5
2022-09-21T00:08:24.379Z,4.6
2022-09-21T00:10:27.683Z,3.8
2022-09-21T00:12:25.128Z,4.4
2022-09-21T00:14:24.262Z,4.7
2022-09-21T00:16:26.814Z,4.2
2022-09-21T00:18:26.206Z,5
2022-09-21T00:20:29.013Z,4.3
2022-09-21T00:24:25.513Z,4.1
2022-09-21T00:26:26.647Z,4.2
2022-09-21T00:28:28.992Z,4.3
2022-09-21T00:30:23.709Z,4.4
2022-09-21T00:34:20.662Z,4.3
2022-09-21T00:36:27.406Z,4.4
2022-09-21T00:38:25.814Z,4
2022-09-21T00:40:24.968Z,4.1
2022-09-21T00:42:25.085Z,4.2
2022-09-21T00:44:24.426Z,3.5
2022-09-21T00:46:23.293Z,4
2022-09-21T00:48:25.022Z,4.7
2022-09-21T00:50:22.599Z,4.2
2022-09-21T00:54:23.196Z,4.1
2022-09-21T00:56:25.473Z,3.9
2022-09-21T01:00:24.454Z,4.5
2022-09-21T01:04:21.184Z,4.1
2022-09-21T01:06:27.169Z,3.9
2022-09-21T01:08:25.164Z,4.5
2022-09-21T01:10:22.292Z,3.7
2022-09-21T01:12:22.724Z,4
2022-09-21T01:14:23.413Z,4.4
2022-09-21T01:16:23.221Z,4.2
2022-09-21T01:20:24.638Z,3.9
2022-09-21T01:22:25.375Z,4.3
2022-09-21T01:24:24.120Z,4.4
2022-09-21T01:28:22.289Z,4.5
2022-09-21T01:30:23.589Z,4.3
2022-09-21T01:32:24.242Z,4
2022-09-21T01:34:22.306Z,3.8
2022-09-21T01:36:23.525Z,4.5
2022-09-21T01:38:23.849Z,4.8
2022-09-21T01:40:25.339Z,3.8
2022-09-21T01:42:25.714Z,4.4
2022-09-21T01:44:21.488Z,4.2
2022-09-21T01:46:24.216Z,4.4
2022-09-21T01:48:22.034Z,4.3
2022-09-21T01:50:23.730Z,4.7
2022-09-21T01:52:25.251Z,4
2022-09-21T01:56:24.794Z,4.7
2022-09-21T01:58:22.987Z,4.1
2022-09-21T02:00:24.972Z,4.5
2022-09-21T02:04:25.117Z,4.4
2022-09-21T02:08:26.129Z,4.1
2022-09-21T02:12:26.920Z,4.4
2022-09-21T02:14:22.126Z,4
2022-09-21T02:18:28.404Z,4.8
2022-09-21T02:20:24.619Z,4.2
2022-09-21T02:22:24.091Z,5
2022-09-21T02:24:23.402Z,5.1
2022-09-21T02:26:22.631Z,5
2022-09-21T02:28:27.387Z,4.3
2022-09-21T02:30:21.772Z,4.1
2022-09-21T02:34:23.281Z,3.9
2022-09-21T02:36:24.402Z,4.3
2022-09-21T02:38:24.652Z,4
2022-09-21T02:40:27.918Z,4.4
2022-09-21T02:42:27.830Z,4.7
2022-09-21T02:44:23.353Z,3.9
2022-09-21T02:46:23.271Z,4.8
2022-09-21T02:48:24.932Z,4.1
2022-09-21T02:50:27.399Z,4.3
2022-09-21T02:52:25.268Z,4.5
2022-09-21T02:54:23.398Z,4.8
2022-09-21T02:56:26.147Z,4.3
2022-09-21T02:58:22.264Z,4.8
2022-09-21T03:00:25.311Z,4.6
2022-09-21T03:04:24.787Z,4.9
2022-09-21T03:08:25.453Z,4.8
2022-09-21T03:10:25.125Z,4
2022-09-21T03:12:24.948Z,4.6
2022-09-21T03:14:21.350Z,5.2
2022-09-21T03:16:25.225Z,4.9
2022-09-21T03:18:25.568Z,4.2
2022-09-21T03:20:27.212Z,4.6
2022-09-21T03:22:24.675Z,4.8
2022-09-21T03:24:22.255Z,4.9
2022-09-21T03:26:26.151Z,4.6
2022-09-21T03:28:23.056Z,4.4
2022-09-21T03:30:25.123Z,4.6
2022-09-21T03:32:25.632Z,5
2022-09-21T03:34:24.094Z,4.2
2022-09-21T03:36:22.068Z,4.9
2022-09-21T03:40:25.371Z,4.1
2022-09-21T03:42:21.715Z,5.1
2022-09-21T03:44:23.481Z,4.9
2022-09-21T03:46:25.232Z,4.4
2022-09-21T03:48:24.772Z,5
2022-09-21T03:50:27.186Z,4.8
2022-09-21T03:52:25.908Z,4.2
2022-09-21T03:54:25.100Z,4.7
2022-09-21T03:56:24.080Z,5
2022-09-21T03:58:21.946Z,4.5
2022-09-21T04:00:26.803Z,4
2022-09-21T04:02:27.515Z,4.4
2022-09-21T04:04:21.159Z,5
2022-09-21T04:08:23.907Z,4.2
2022-09-21T04:10:21.651Z,4.3
2022-09-21T04:12:26.995Z,4.5
2022-09-21T04:14:20.949Z,5
2022-09-21T04:16:25.538Z,4.6
2022-09-21T04:18:25.168Z,5
2022-09-21T04:20:26.977Z,4.6
2022-09-21T04:22:27.027Z,4.5
2022-09-21T04:24:21.001Z,4.6
2022-09-21T04:26:27.182Z,4.3
2022-09-21T04:28:22.337Z,5.1
2022-09-21T04:30:27.856Z,4.1
2022-09-21T04:32:22.047Z,5.4
2022-09-21T04:34:23.845Z,4.9
2022-09-21T04:36:23.397Z,4.5
2022-09-21T04:38:22.468Z,4.7
2022-09-21T04:40:23.302Z,4.8
2022-09-21T04:46:21.692Z,4.9
2022-09-21T04:48:22.808Z,5.2
2022-09-21T04:50:25.920Z,5.3
2022-09-21T04:52:27.833Z,5.5
2022-09-21T04:54:22.851Z,4.8
2022-09-21T04:56:23.248Z,5.1
2022-09-21T04:58:25.271Z,5.5
2022-09-21T05:00:29.208Z,4.9
2022-09-21T05:02:25.334Z,4.4
2022-09-21T05:04:20.890Z,4.8
2022-09-21T05:06:22.037Z,4.3
2022-09-21T05:08:23.843Z,5.1
2022-09-21T05:10:28.709Z,4.9
2022-09-21T05:12:23.398Z,4.3
2022-09-21T05:14:24.855Z,5.1
2022-09-21T05:16:27.225Z,5
2022-09-21T05:18:22.577Z,4.3
2022-09-21T05:20:26.536Z,5
2022-09-21T05:22:26.307Z,4.6
2022-09-21T05:24:22.936Z,5.1
2022-09-21T05:26:26.650Z,4.8
2022-09-21T05:28:25.447Z,4.6
2022-09-21T05:30:24.058Z,4.4
2022-09-21T05:34:24.099Z,4.9
2022-09-21T05:36:28.204Z,4.5
2022-09-21T05:38:24.347Z,4.9
2022-09-21T05:40:29.010Z,4.2
2022-09-21T05:42:25.107Z,4.5
2022-09-21T05:44:22.884Z,4.9
2022-09-21T05:46:22.895Z,4.7
2022-09-21T05:48:25.499Z,4.5
2022-09-21T05:52:24.401Z,4.8
2022-09-21T05:54:24.780Z,4.6
2022-09-21T05:56:24.398Z,4.8
2022-09-21T05:58:25.784Z,4.4
2022-09-21T06:00:25.376Z,4.8
2022-09-21T06:02:25.107Z,4.9
2022-09-21T06:04:24.680Z,5.2
2022-09-21T06:06:26.092Z,5.4
2022-09-21T06:08:23.724Z,6.7
2022-09-21T06:10:27.980Z,5.2
2022-09-21T06:12:26.900Z,4.8
2022-09-21T06:14:24.106Z,6.1
2022-09-21T06:18:24.177Z,5.3
2022-09-21T06:20:24.144Z,6.4
2022-09-21T06:22:22.891Z,5.4
2022-09-21T06:24:25.265Z,6.1
2022-09-21T06:26:23.414Z,5.4
2022-09-21T06:28:29.066Z,4.8
2022-09-21T06:32:25.752Z,5.4
2022-09-21T06:36:25.726Z,5.5
2022-09-21T06:38:27.391Z,6.2
2022-09-21T06:40:23.438Z,5.8
2022-09-21T06:42:22.845Z,6.4
2022-09-21T06:44:24.086Z,5.6
2022-09-21T06:46:23.990Z,6
2022-09-21T06:50:23.715Z,5.7
2022-09-21T06:52:23.946Z,6.3
2022-09-21T06:54:23.411Z,7.8
2022-09-21T06:56:28.712Z,7.5
2022-09-21T06:58:26.115Z,8
2022-09-21T07:04:25.236Z,8.4
2022-09-21T07:06:24.785Z,8.1
2022-09-21T07:10:22.790Z,8
2022-09-21T07:12:28.762Z,8.9
2022-09-21T07:14:24.046Z,10.9
2022-09-21T07:16:28.363Z,11.2
2022-09-21T07:18:25.920Z,9.6
2022-09-21T07:20:25.402Z,9.7
2022-09-21T07:22:28.564Z,9.3
2022-09-21T07:24:23.883Z,9.7
2022-09-21T07:26:22.924Z,10.4
2022-09-21T07:28:23.747Z,9.5
2022-09-21T07:30:22.988Z,9.1
2022-09-21T07:32:36.180Z,9.3
2022-09-21T07:34:25.702Z,9
2022-09-21T07:36:22.987Z,9.3
2022-09-21T07:38:28.128Z,10.6
2022-09-21T07:40:25.195Z,9.2
2022-09-21T07:42:29.400Z,8.9
2022-09-21T07:44:25.344Z,9
2022-09-21T07:46:27.803Z,8
2022-09-21T07:48:24.388Z,9.2
2022-09-21T07:50:24.884Z,9
2022-09-21T07:52:24.234Z,8.5
2022-09-21T07:54:26.769Z,8.1
2022-09-21T07:56:29.578Z,10.1
2022-09-21T07:58:28.307Z,10
2022-09-21T08:00:28.389Z,9.8
2022-09-21T08:02:27.504Z,8.9
2022-09-21T08:04:22.801Z,8.3
2022-09-21T08:08:23.304Z,8.8
2022-09-21T08:10:25.910Z,9.7
2022-09-21T08:12:25.156Z,9.3
2022-09-21T08:14:26.347Z,8.4
2022-09-21T08:16:26.572Z,8.1
2022-09-21T08:18:24.029Z,8.4
2022-09-21T08:20:28.035Z,8.2
2022-09-21T08:22:25.171Z,8.1
2022-09-21T08:24:25.754Z,7.4
2022-09-21T08:26:24.844Z,8.7
2022-09-21T08:28:28.287Z,9.5
2022-09-21T08:30:23.299Z,9.9
2022-09-21T08:32:46.920Z,10
2022-09-21T08:34:40.832Z,9.4
2022-09-21T08:36:32.012Z,8.9
2022-09-21T08:38:27.518Z,11.1
2022-09-21T08:40:27.756Z,8.9
2022-09-21T08:42:26.228Z,11.9
2022-09-21T08:44:26.195Z,10.3
2022-09-21T08:46:27.290Z,9.9
2022-09-21T08:48:30.903Z,10.5
2022-09-21T08:50:28.363Z,9.4
2022-09-21T08:52:29.314Z,10.1
2022-09-21T08:54:23.496Z,9.4
2022-09-21T08:56:41.573Z,9.5
2022-09-21T08:58:41.732Z,10
2022-09-21T09:00:28.144Z,10.1
2022-09-21T09:02:28.851Z,10.9
2022-09-21T09:04:24.852Z,10.2
2022-09-21T09:06:26.897Z,8.9
2022-09-21T09:08:26.884Z,9.3
2022-09-21T09:10:25.518Z,9.1
2022-09-21T09:12:26.620Z,10.3
2022-09-21T09:14:24.159Z,9.4
2022-09-21T09:16:26.379Z,8.7
2022-09-21T09:18:24.990Z,10.1
2022-09-21T09:20:24.899Z,8
2022-09-21T09:22:27.248Z,8.5
2022-09-21T09:24:24.194Z,8.2
2022-09-21T09:26:25.977Z,7.9
2022-09-21T09:28:26.623Z,8.6
2022-09-21T09:32:27.814Z,8.2
2022-09-21T09:34:26.961Z,6.7
2022-09-21T09:36:46.643Z,7.1
2022-09-21T09:38:49.231Z,7.9
2022-09-21T09:40:30.739Z,7.4
2022-09-21T09:42:27.443Z,7.6
2022-09-21T09:44:27.173Z,9
2022-09-21T09:46:26.501Z,8.4
2022-09-21T09:50:26.661Z,7.5
2022-09-21T09:52:25.230Z,8.8
2022-09-21T09:54:24.479Z,6.8
2022-09-21T09:56:25.788Z,7.6
2022-09-21T09:58:26.741Z,8.2
2022-09-21T10:00:26.422Z,8.1
2022-09-21T10:02:27.295Z,8.3
2022-09-21T10:04:24.943Z,7.9
2022-09-21T10:06:23.281Z,9.4
2022-09-21T10:08:23.175Z,7
2022-09-21T10:10:28.634Z,7.2
2022-09-21T10:12:25.007Z,6.5
2022-09-21T10:14:28.458Z,7
2022-09-21T10:16:29.141Z,6.8
2022-09-21T10:18:25.281Z,7
2022-09-21T10:20:27.337Z,7.2
2022-09-21T10:22:28.026Z,6.7
2022-09-21T10:24:28.392Z,7.1
2022-09-21T10:26:27.071Z,6.9
2022-09-21T10:28:26.173Z,6.6
2022-09-21T10:32:25.109Z,6.5
2022-09-21T10:36:27.014Z,5.2
2022-09-21T10:38:26.453Z,4.8
2022-09-21T10:42:26.532Z,4.9
2022-09-21T10:44:23.291Z,5
2022-09-21T10:46:27.227Z,4.1
2022-09-21T10:48:27.231Z,4.4
2022-09-21T10:50:28.442Z,4.8
2022-09-21T10:52:25.341Z,4.5
2022-09-21T10:54:27.929Z,5
2022-09-21T10:56:28.756Z,5.1
2022-09-21T10:58:27.715Z,4.7
2022-09-21T11:00:27.251Z,4.9
2022-09-21T11:02:23.816Z,4.5
2022-09-21T11:04:23.884Z,4
2022-09-21T11:06:26.886Z,4.3
2022-09-21T11:08:26.111Z,4.4
2022-09-21T11:10:25.749Z,4.2
2022-09-21T11:12:26.730Z,3.8
2022-09-21T11:14:25.156Z,4
2022-09-21T11:18:29.476Z,3.5
2022-09-21T11:20:26.455Z,3.7
2022-09-21T11:22:29.160Z,4.1
2022-09-21T11:24:23.343Z,3.9
2022-09-21T11:28:26.132Z,3.7
2022-09-21T11:30:26.791Z,3.5
2022-09-21T11:32:23.246Z,3.4
2022-09-21T11:34:22.104Z,6.1
2022-09-21T11:36:26.358Z,3.4
2022-09-21T11:38:33.633Z,3.8
2022-09-21T11:40:25.258Z,3.7
2022-09-21T11:42:23.870Z,3.3
2022-09-21T11:44:26.048Z,3.2
2022-09-21T11:46:26.359Z,3.3
2022-09-21T11:48:24.795Z,3.4
2022-09-21T11:50:30.150Z,3.3
2022-09-21T11:52:25.766Z,3.6
2022-09-21T11:54:22.996Z,3
2022-09-21T11:56:23.434Z,3.8
2022-09-21T11:58:25.739Z,4.8
2022-09-21T12:00:24.666Z,3.5
2022-09-21T12:02:26.992Z,3.1
2022-09-21T12:04:21.996Z,3.7
2022-09-21T12:06:27.096Z,3.3
2022-09-21T12:08:24.006Z,3.8
2022-09-21T12:10:27.723Z,3.4
2022-09-21T12:12:28.473Z,2.8
2022-09-21T12:14:24.505Z,3.3
2022-09-21T12:16:27.184Z,4
2022-09-21T12:18:29.808Z,2.8
2022-09-21T12:20:27.473Z,3.5
2022-09-21T12:22:29.088Z,3.9
2022-09-21T12:24:27.432Z,3.1
2022-09-21T12:26:25.805Z,3.6
2022-09-21T12:28:23.962Z,3.5
2022-09-21T12:30:26.594Z,3.4
2022-09-21T12:34:24.220Z,3.6
2022-09-21T12:36:27.105Z,3
2022-09-21T12:38:26.811Z,3.1
2022-09-21T12:40:26.669Z,3.6
2022-09-21T12:42:26.576Z,4
2022-09-21T12:44:21.889Z,3.2
2022-09-21T12:46:29.824Z,3.4
2022-09-21T12:48:26.931Z,3.1
2022-09-21T12:52:29.874Z,3.2
2022-09-21T12:54:21.848Z,3.9
2022-09-21T12:56:26.619Z,3.1
2022-09-21T12:58:24.513Z,4.6
2022-09-21T13:00:26.133Z,3.6
2022-09-21T13:02:25.826Z,3.5
2022-09-21T13:04:24.301Z,2.8
2022-09-21T13:08:24.797Z,3.2
2022-09-21T13:10:26.281Z,2.9
2022-09-21T13:12:26.069Z,3.2
2022-09-21T13:14:23.094Z,3.6
2022-09-21T13:16:25.893Z,3.1
2022-09-21T13:18:23.980Z,3.2
2022-09-21T13:22:25.757Z,3.3
2022-09-21T13:24:22.388Z,2.7
2022-09-21T13:26:29.029Z,3.7
2022-09-21T13:28:24.190Z,3.1
2022-09-21T13:30:26.516Z,2.8
2022-09-21T13:32:23.237Z,3.4
2022-09-21T13:34:24.157Z,3.1
2022-09-21T13:36:30.089Z,3.8
2022-09-21T13:38:24.197Z,3.6
2022-09-21T13:40:26.414Z,3
2022-09-21T13:42:24.902Z,3.2
2022-09-21T13:44:24.226Z,2.8
2022-09-21T13:46:24.745Z,3.1
2022-09-21T13:50:29.753Z,3.8
2022-09-21T13:52:24.567Z,3.3
2022-09-21T13:54:22.120Z,2.7
2022-09-21T13:56:26.646Z,3.1
2022-09-21T13:58:29.520Z,2.5
2022-09-21T14:00:23.307Z,2.9
2022-09-21T14:04:27.447Z,2.4
2022-09-21T14:06:23.948Z,2.7
2022-09-21T14:08:28.444Z,2.8
2022-09-21T14:10:27.046Z,3.1
2022-09-21T14:12:27.763Z,2.9
2022-09-21T14:14:26.639Z,3.1
2022-09-21T14:16:26.001Z,3.4
2022-09-21T14:18:26.762Z,2.9
2022-09-21T14:20:30.809Z,3.5
2022-09-21T14:22:23.663Z,3
2022-09-21T14:24:25.481Z,2.5
2022-09-21T14:28:27.611Z,2.6
2022-09-21T14:30:28.096Z,2.8
2022-09-21T14:32:28.948Z,3.2
2022-09-21T14:34:29.496Z,2.5
2022-09-21T14:36:29.430Z,2.6
2022-09-21T14:38:27.523Z,3
2022-09-21T14:40:25.781Z,2.8
2022-09-21T14:42:26.351Z,3
2022-09-21T14:44:22.145Z,2.8
2022-09-21T14:46:27.210Z,2.5
2022-09-21T14:48:27.736Z,3.2
2022-09-21T14:50:25.140Z,3.1
2022-09-21T14:52:31.839Z,2.3
2022-09-21T14:54:28.371Z,2.7
2022-09-21T14:56:26.524Z,3.3
2022-09-21T14:58:24.560Z,2.9
2022-09-21T15:00:25.106Z,3.3
2022-09-21T15:02:25.801Z,2.7
2022-09-21T15:04:23.673Z,2.6
2022-09-21T15:06:24.086Z,3.1
2022-09-21T15:08:23.359Z,2.9
2022-09-21T15:10:23.441Z,2.8
2022-09-21T15:12:24.633Z,2.5
2022-09-21T15:14:25.542Z,2.7
2022-09-21T15:16:26.591Z,2.5
2022-09-21T15:18:23.132Z,3
2022-09-21T15:20:23.942Z,2.5
2022-09-21T15:22:24.132Z,2.3
2022-09-21T15:24:28.585Z,2.9
2022-09-21T15:26:23.814Z,2.8
2022-09-21T15:28:28.861Z,2.5
2022-09-21T15:30:27.008Z,2.7
2022-09-21T15:32:26.590Z,2.8
2022-09-21T15:34:24.757Z,2.7
2022-09-21T15:36:27.230Z,2.6
2022-09-21T15:38:22.240Z,2.8
2022-09-21T15:44:25.144Z,2.9
2022-09-21T15:46:24.061Z,3
2022-09-21T15:48:25.593Z,2.4
2022-09-21T15:50:25.951Z,2.8
2022-09-21T15:52:28.525Z,2.9
2022-09-21T15:54:25.946Z,2.7
2022-09-21T15:56:28.131Z,2.6
2022-09-21T15:58:27.353Z,3.2
2022-09-21T16:00:26.707Z,3.9
2022-09-21T16:02:26.390Z,2.6
2022-09-21T16:04:27.027Z,2.9
2022-09-21T16:06:26.273Z,2.5
2022-09-21T16:08:26.955Z,2.7
2022-09-21T16:10:26.937Z,2.8
2022-09-21T16:12:28.881Z,2.2
2022-09-21T16:14:24.494Z,2.7
2022-09-21T16:16:25.021Z,2.6
2022-09-21T16:20:25.535Z,2.5
2022-09-21T16:22:25.309Z,2.3
2022-09-21T16:24:28.501Z,2.5
2022-09-21T16:26:23.548Z,2.3
2022-09-21T16:28:27.556Z,3.3
2022-09-21T16:30:23.406Z,2.8
2022-09-21T16:34:21.858Z,2.2
2022-09-21T16:36:26.050Z,2.4
2022-09-21T16:38:30.319Z,2.5
2022-09-21T16:40:27.002Z,2.1
2022-09-21T16:42:28.922Z,2.6
2022-09-21T16:46:25.836Z,2.8
2022-09-21T16:48:28.465Z,2.9
2022-09-21T16:50:29.484Z,3.3
2022-09-21T16:52:25.077Z,2.9
2022-09-21T16:54:26.720Z,3
2022-09-21T16:56:24.509Z,2.9
2022-09-21T16:58:29.222Z,2.8
2022-09-21T17:00:29.579Z,3.8
2022-09-21T17:02:30.682Z,2.8
2022-09-21T17:04:27.491Z,2.6
2022-09-21T17:06:24.871Z,2.3
2022-09-21T17:08:26.782Z,2.4
2022-09-21T17:10:28.791Z,2.5
2022-09-21T17:14:24.251Z,2.6
2022-09-21T17:16:24.625Z,2.7
2022-09-21T17:18:25.370Z,2.6
2022-09-21T17:20:26.080Z,2.5
2022-09-21T17:22:26.498Z,2.4
2022-09-21T17:28:28.030Z,2.3
2022-09-21T17:30:25.585Z,3.3
2022-09-21T17:32:27.074Z,2.5
2022-09-21T17:34:24.051Z,3
2022-09-21T17:36:26.242Z,2.7
2022-09-21T17:38:27.109Z,3
2022-09-21T17:40:25.925Z,2.7
2022-09-21T17:42:32.390Z,2.8
2022-09-21T17:44:38.055Z,2.6
2022-09-21T17:46:38.199Z,3.3
2022-09-21T17:48:33.911Z,2.3
2022-09-21T17:50:28.970Z,2.8
2022-09-21T17:52:31.234Z,2.7
2022-09-21T17:58:27.695Z,3.4
2022-09-21T18:00:30.362Z,3.2
2022-09-21T18:02:27.382Z,3.9
2022-09-21T18:04:25.286Z,3.4
2022-09-21T18:06:25.472Z,4.1
2022-09-21T18:08:30.585Z,4.7
2022-09-21T18:10:26.357Z,4.2
2022-09-21T18:12:27.631Z,3.5
2022-09-21T18:14:21.452Z,4.1
2022-09-21T18:18:29.454Z,4.2
2022-09-21T18:20:26.338Z,4.9
2022-09-21T18:24:28.695Z,4.2
2022-09-21T18:26:24.403Z,4.1
2022-09-21T18:28:29.145Z,4.6
2022-09-21T18:30:26.981Z,4.4
2022-09-21T18:32:28.316Z,4.7
2022-09-21T18:34:25.710Z,4.4
2022-09-21T18:36:22.961Z,4.6
2022-09-21T18:38:25.873Z,4.5
2022-09-21T18:40:28.026Z,4.3
2022-09-21T18:42:29.291Z,4.1
2022-09-21T18:44:21.688Z,4.7
2022-09-21T18:46:27.884Z,4.5
2022-09-21T18:48:30.137Z,4.9
2022-09-21T18:50:26.970Z,4.7
2022-09-21T18:56:29.029Z,4.4
2022-09-21T18:58:28.421Z,4.5
2022-09-21T19:00:28.440Z,4.1
2022-09-21T19:02:28.859Z,3.6
2022-09-21T19:04:21.093Z,4.1
2022-09-21T19:06:23.314Z,4
2022-09-21T19:08:27.653Z,4.5
2022-09-21T19:10:27.360Z,5
2022-09-21T19:12:24.214Z,4.8
2022-09-21T19:14:21.269Z,4.6
2022-09-21T19:16:28.822Z,5.1
2022-09-21T19:18:23.505Z,4.8
2022-09-21T19:20:24.151Z,4.2
2022-09-21T19:22:24.527Z,4.6
2022-09-21T19:26:28.661Z,4.5
2022-09-21T19:28:22.538Z,4.2
2022-09-21T19:30:21.957Z,4.1
2022-09-21T19:32:29.440Z,4.6
2022-09-21T19:34:26.047Z,4.3
2022-09-21T19:38:28.024Z,4
2022-09-21T19:40:25.445Z,4.5
2022-09-21T19:42:29.993Z,4.6
2022-09-21T19:44:26.454Z,5
2022-09-21T19:46:22.339Z,4.2
2022-09-21T19:48:29.126Z,4.8
2022-09-21T19:50:26.473Z,3.7
2022-09-21T19:52:26.297Z,4
2022-09-21T19:54:23.708Z,4.6
2022-09-21T19:56:25.335Z,4.2
2022-09-21T19:58:27.265Z,4.3
2022-09-21T20:00:24.796Z,3.8
2022-09-21T20:02:25.608Z,4.2
2022-09-21T20:04:23.228Z,4.4
2022-09-21T20:06:27.551Z,4.1
2022-09-21T20:08:23.340Z,5
2022-09-21T20:10:27.075Z,5.4
2022-09-21T20:12:28.354Z,7
2022-09-21T20:14:23.718Z,6.6
2022-09-21T20:16:25.631Z,5.7
2022-09-21T20:18:22.341Z,4.4
2022-09-21T20:20:25.268Z,4.6
2022-09-21T20:22:27.783Z,4.1
2022-09-21T20:24:23.282Z,4.3
2022-09-21T20:26:28.264Z,3.9
2022-09-21T20:28:26.710Z,3.4
2022-09-21T20:30:25.282Z,4.6
2022-09-21T20:32:25.400Z,4.8
2022-09-21T20:34:21.479Z,4.6
2022-09-21T20:36:27.199Z,6
2022-09-21T20:38:29.472Z,7.1
2022-09-21T20:40:23.135Z,7.6
2022-09-21T20:42:25.900Z,6.9
2022-09-21T20:44:25.675Z,7.2
2022-09-21T20:46:27.054Z,6.3
2022-09-21T20:48:26.074Z,7.8
2022-09-21T20:50:25.581Z,7.2
2022-09-21T20:52:29.023Z,6.7
2022-09-21T20:54:23.987Z,5.8
2022-09-21T20:56:26.298Z,5.3
2022-09-21T21:00:25.826Z,4
2022-09-21T21:02:28.389Z,4.6
2022-09-21T21:04:26.425Z,4.8
2022-09-21T21:06:25.942Z,4.7
2022-09-21T21:08:25.724Z,5
2022-09-21T21:10:26.699Z,3.9
2022-09-21T21:12:26.705Z,4.5
2022-09-21T21:16:29.744Z,4.1
2022-09-21T21:18:24.072Z,3.8
2022-09-21T21:20:26.228Z,4.2
2022-09-21T21:22:25.456Z,4.3
2022-09-21T21:26:43.858Z,5
2022-09-21T21:28:28.061Z,4.6
2022-09-21T21:30:25.526Z,5.2
2022-09-21T21:32:26.163Z,6.7
2022-09-21T21:34:23.568Z,6.8
2022-09-21T21:36:27.181Z,6.1
2022-09-21T21:38:28.248Z,6.8
2022-09-21T21:40:29.261Z,6.9
2022-09-21T21:42:25.091Z,6.1
2022-09-21T21:44:26.774Z,6.2
2022-09-21T21:46:28.386Z,4.8
2022-09-21T21:48:23.128Z,4.4
2022-09-21T21:50:25.992Z,4.2
2022-09-21T21:52:29.186Z,4.3
2022-09-21T21:54:26.424Z,3.6
2022-09-21T21:56:27.720Z,3.9
2022-09-21T21:58:30.062Z,3.8
2022-09-21T22:00:28.574Z,4.1
2022-09-21T22:04:27.623Z,3.9
2022-09-21T22:06:28.351Z,3.2
2022-09-21T22:08:27.690Z,3.6
2022-09-21T22:10:27.238Z,3.5
2022-09-21T22:12:26.908Z,3.4
2022-09-21T22:14:25.293Z,3.1
2022-09-21T22:16:23.194Z,3.4
2022-09-21T22:18:26.067Z,3.5
2022-09-21T22:20:24.891Z,3.4
2022-09-21T22:22:25.934Z,3.1
2022-09-21T22:24:23.833Z,3.2
2022-09-21T22:28:24.922Z,3.5
2022-09-21T22:30:28.326Z,3.2
2022-09-21T22:32:27.824Z,3.6
2022-09-21T22:34:23.492Z,3.2
2022-09-21T22:36:25.253Z,3.7
2022-09-21T22:38:24.341Z,3.6
2022-09-21T22:40:27.156Z,3.3
2022-09-21T22:42:25.956Z,3.7
2022-09-21T22:44:21.537Z,3
2022-09-21T22:46:21.880Z,3.6
2022-09-21T22:48:23.181Z,3.5
2022-09-21T22:50:28.812Z,3.2
2022-09-21T22:52:25.672Z,2.8
2022-09-21T22:54:23.695Z,3.9
2022-09-21T22:56:29.134Z,3.2
2022-09-21T22:58:22.640Z,3.1
2022-09-21T23:00:26.524Z,3.2
2022-09-21T23:02:29.338Z,3.4
2022-09-21T23:04:24.791Z,3
2022-09-21T23:06:23.314Z,4
2022-09-21T23:08:27.064Z,3.3
2022-09-21T23:12:29.224Z,3.7
2022-09-21T23:14:23.738Z,2.8
2022-09-21T23:16:26.795Z,3.2
2022-09-21T23:18:25.561Z,3.1
2022-09-21T23:20:23.507Z,3.5
2022-09-21T23:22:25.151Z,3.1
2022-09-21T23:24:27.912Z,3.2
2022-09-21T23:26:26.369Z,3.4
2022-09-21T23:28:27.292Z,3.6
2022-09-21T23:30:24.489Z,3.3
2022-09-21T23:32:26.067Z,3.1
2022-09-21T23:34:23.688Z,3
2022-09-21T23:36:29.186Z,3.5
2022-09-21T23:40:30.751Z,3.6
2022-09-21T23:42:28.725Z,3
2022-09-21T23:44:22.837Z,3.3
2022-09-21T23:46:26.173Z,2.9
2022-09-21T23:48:29.313Z,3
2022-09-21T23:50:28.819Z,3.3
2022-09-21T23:52:22.215Z,3.4
2022-09-21T23:54:26.546Z,3.8
2022-09-21T23:56:22.396Z,3.3
2022-09-21T23:58:28.305Z,3.5
